aviador You're here:

KAIA Decoded Metar

ALLIANCE in NE, USA
Report Time2018-01-17 17:53:00
UTC Time2018-01-17 18:12:58
Flight Rules vfr VFR
WindCalm
Visibility9999 m
Phenomena:N/A
Clouds:N/A
Expected CloudBase > 2,800 ft AGL from Temp-Dew spread
CeilingNone
Temp-2°C (ISA -9)
Dew Point-9°C (59% RH)
AAT-5.0°C
QNH1025 hPa
Density Alt2,454 ft
Elevation3,924 ft
Report Wrong Elevation
Raw Report
KAIA 171753Z AUTO 00000KT 10SM CLR M02/M09 A3028 RMK AO2 SLP309
T10171089 11017 21183 50012=

Extra information for KAIA:More info

Metar Taf Metar & Taf Last 4 Metars F.Rules Stats Wind Profile Meteogram Temp Stats Airport Information Weather charts Add Link Nearby VenuesMetar ALERT Operation Metar Decoded Social comments

AIRNAV info for KAIA